sensor_id;sensor_type;location;lat;lon;timestamp;P1;durP1;ratioP1;P2;durP2;ratioP2
4963;SDS011;2497;47.410;9.740;2023-07-13T00:01:04;9.87;;;4.70;;
4963;SDS011;2497;47.410;9.740;2023-07-13T00:03:33;8.03;;;4.50;;
4963;SDS011;2497;47.410;9.740;2023-07-13T00:06:01;8.27;;;4.27;;
4963;SDS011;2497;47.410;9.740;2023-07-13T00:08:30;7.63;;;4.40;;
4963;SDS011;2497;47.410;9.740;2023-07-13T00:11:00;9.33;;;4.67;;
4963;SDS011;2497;47.410;9.740;2023-07-13T00:13:28;6.83;;;4.67;;
4963;SDS011;2497;47.410;9.740;2023-07-13T00:15:56;7.57;;;4.20;;
4963;SDS011;2497;47.410;9.740;2023-07-13T00:18:24;6.83;;;4.30;;
4963;SDS011;2497;47.410;9.740;2023-07-13T00:20:52;8.53;;;4.50;;
4963;SDS011;2497;47.410;9.740;2023-07-13T00:23:19;8.10;;;3.80;;
4963;SDS011;2497;47.410;9.740;2023-07-13T00:25:46;8.07;;;4.30;;
4963;SDS011;2497;47.410;9.740;2023-07-13T00:28:15;7.03;;;4.10;;
4963;SDS011;2497;47.410;9.740;2023-07-13T00:30:42;6.73;;;3.90;;
4963;SDS011;2497;47.410;9.740;2023-07-13T00:33:13;7.47;;;4.40;;
4963;SDS011;2497;47.410;9.740;2023-07-13T00:35:42;6.47;;;4.70;;
4963;SDS011;2497;47.410;9.740;2023-07-13T00:38:10;11.33;;;4.90;;
4963;SDS011;2497;47.410;9.740;2023-07-13T00:40:38;6.67;;;3.90;;
4963;SDS011;2497;47.410;9.740;2023-07-13T00:43:08;11.50;;;4.70;;
4963;SDS011;2497;47.410;9.740;2023-07-13T00:48:42;7.47;;;4.70;;
4963;SDS011;2497;47.410;9.740;2023-07-13T00:51:12;11.87;;;4.67;;
4963;SDS011;2497;47.410;9.740;2023-07-13T00:53:44;8.93;;;5.43;;
4963;SDS011;2497;47.410;9.740;2023-07-13T00:56:14;11.53;;;4.30;;
4963;SDS011;2497;47.410;9.740;2023-07-13T00:58:41;7.47;;;4.13;;
4963;SDS011;2497;47.410;9.740;2023-07-13T01:01:09;8.40;;;4.40;;
4963;SDS011;2497;47.410;9.740;2023-07-13T01:03:38;7.73;;;4.83;;
4963;SDS011;2497;47.410;9.740;2023-07-13T01:06:05;7.70;;;4.23;;
4963;SDS011;2497;47.410;9.740;2023-07-13T01:08:33;7.77;;;4.80;;
4963;SDS011;2497;47.410;9.740;2023-07-13T01:11:01;17.83;;;5.20;;
4963;SDS011;2497;47.410;9.740;2023-07-13T01:13:28;8.53;;;4.63;;
4963;SDS011;2497;47.410;9.740;2023-07-13T01:15:56;6.70;;;3.80;;
4963;SDS011;2497;47.410;9.740;2023-07-13T01:18:27;5.63;;;3.97;;
4963;SDS011;2497;47.410;9.740;2023-07-13T01:20:57;5.13;;;3.50;;
4963;SDS011;2497;47.410;9.740;2023-07-13T01:23:28;8.30;;;3.97;;
4963;SDS011;2497;47.410;9.740;2023-07-13T01:25:57;8.83;;;4.20;;
4963;SDS011;2497;47.410;9.740;2023-07-13T01:28:25;6.50;;;3.70;;
4963;SDS011;2497;47.410;9.740;2023-07-13T01:30:54;5.00;;;3.33;;
4963;SDS011;2497;47.410;9.740;2023-07-13T01:33:22;6.60;;;3.30;;
4963;SDS011;2497;47.410;9.740;2023-07-13T01:35:50;11.23;;;4.20;;
4963;SDS011;2497;47.410;9.740;2023-07-13T01:38:19;6.50;;;3.77;;
4963;SDS011;2497;47.410;9.740;2023-07-13T01:40:47;6.50;;;3.70;;
4963;SDS011;2497;47.410;9.740;2023-07-13T01:43:14;6.90;;;3.80;;
4963;SDS011;2497;47.410;9.740;2023-07-13T01:45:42;7.10;;;3.80;;
4963;SDS011;2497;47.410;9.740;2023-07-13T01:48:10;6.97;;;4.10;;
4963;SDS011;2497;47.410;9.740;2023-07-13T01:50:37;14.93;;;4.70;;
4963;SDS011;2497;47.410;9.740;2023-07-13T01:53:05;7.80;;;4.40;;
4963;SDS011;2497;47.410;9.740;2023-07-13T01:55:33;8.27;;;4.27;;
4963;SDS011;2497;47.410;9.740;2023-07-13T01:58:06;10.53;;;5.00;;
4963;SDS011;2497;47.410;9.740;2023-07-13T02:00:36;6.33;;;3.93;;
4963;SDS011;2497;47.410;9.740;2023-07-13T02:03:03;12.07;;;4.43;;
4963;SDS011;2497;47.410;9.740;2023-07-13T02:05:31;9.67;;;4.23;;
4963;SDS011;2497;47.410;9.740;2023-07-13T02:07:58;7.83;;;3.57;;
4963;SDS011;2497;47.410;9.740;2023-07-13T02:10:25;7.43;;;4.00;;
4963;SDS011;2497;47.410;9.740;2023-07-13T02:12:55;7.10;;;3.77;;
4963;SDS011;2497;47.410;9.740;2023-07-13T02:15:22;6.60;;;3.87;;
4963;SDS011;2497;47.410;9.740;2023-07-13T02:17:49;6.47;;;3.60;;
4963;SDS011;2497;47.410;9.740;2023-07-13T02:20:16;6.33;;;3.83;;
4963;SDS011;2497;47.410;9.740;2023-07-13T02:22:43;4.83;;;3.27;;
4963;SDS011;2497;47.410;9.740;2023-07-13T02:25:10;6.27;;;3.40;;
4963;SDS011;2497;47.410;9.740;2023-07-13T02:27:37;8.13;;;3.80;;
4963;SDS011;2497;47.410;9.740;2023-07-13T02:30:06;10.20;;;3.60;;
4963;SDS011;2497;47.410;9.740;2023-07-13T02:32:36;7.73;;;3.97;;
4963;SDS011;2497;47.410;9.740;2023-07-13T02:35:04;6.20;;;3.70;;
4963;SDS011;2497;47.410;9.740;2023-07-13T02:37:35;5.50;;;3.40;;
4963;SDS011;2497;47.410;9.740;2023-07-13T02:40:05;6.57;;;4.47;;
4963;SDS011;2497;47.410;9.740;2023-07-13T02:42:33;6.70;;;3.80;;
4963;SDS011;2497;47.410;9.740;2023-07-13T02:45:03;8.17;;;3.53;;
4963;SDS011;2497;47.410;9.740;2023-07-13T02:47:33;6.80;;;3.47;;
4963;SDS011;2497;47.410;9.740;2023-07-13T02:50:00;4.63;;;3.33;;
4963;SDS011;2497;47.410;9.740;2023-07-13T02:52:28;8.50;;;3.73;;
4963;SDS011;2497;47.410;9.740;2023-07-13T02:54:58;7.33;;;3.80;;
4963;SDS011;2497;47.410;9.740;2023-07-13T02:57:27;6.37;;;4.10;;
4963;SDS011;2497;47.410;9.740;2023-07-13T02:59:55;9.70;;;3.53;;
4963;SDS011;2497;47.410;9.740;2023-07-13T03:02:29;12.47;;;3.90;;
4963;SDS011;2497;47.410;9.740;2023-07-13T03:05:02;6.87;;;4.00;;
4963;SDS011;2497;47.410;9.740;2023-07-13T03:07:31;12.93;;;4.60;;
4963;SDS011;2497;47.410;9.740;2023-07-13T03:10:02;8.37;;;4.90;;
4963;SDS011;2497;47.410;9.740;2023-07-13T03:12:30;7.80;;;4.90;;
4963;SDS011;2497;47.410;9.740;2023-07-13T03:14:57;6.90;;;3.87;;
4963;SDS011;2497;47.410;9.740;2023-07-13T03:17:26;10.63;;;3.77;;
4963;SDS011;2497;47.410;9.740;2023-07-13T03:19:53;6.27;;;3.50;;
4963;SDS011;2497;47.410;9.740;2023-07-13T03:22:22;6.20;;;4.07;;
4963;SDS011;2497;47.410;9.740;2023-07-13T03:24:49;9.57;;;4.23;;
4963;SDS011;2497;47.410;9.740;2023-07-13T03:27:17;7.93;;;4.60;;
4963;SDS011;2497;47.410;9.740;2023-07-13T03:29:44;5.43;;;3.60;;
4963;SDS011;2497;47.410;9.740;2023-07-13T03:32:11;11.40;;;4.70;;
4963;SDS011;2497;47.410;9.740;2023-07-13T03:34:40;7.77;;;3.40;;
4963;SDS011;2497;47.410;9.740;2023-07-13T03:37:07;8.70;;;4.27;;
4963;SDS011;2497;47.410;9.740;2023-07-13T03:39:34;12.87;;;4.13;;
4963;SDS011;2497;47.410;9.740;2023-07-13T03:42:01;6.27;;;3.50;;
4963;SDS011;2497;47.410;9.740;2023-07-13T03:44:29;7.83;;;3.60;;
4963;SDS011;2497;47.410;9.740;2023-07-13T03:46:56;7.63;;;3.97;;
4963;SDS011;2497;47.410;9.740;2023-07-13T03:49:23;7.87;;;4.30;;
4963;SDS011;2497;47.410;9.740;2023-07-13T03:51:52;8.83;;;4.57;;
4963;SDS011;2497;47.410;9.740;2023-07-13T03:54:25;6.97;;;4.27;;
4963;SDS011;2497;47.410;9.740;2023-07-13T03:56:52;8.93;;;4.90;;
4963;SDS011;2497;47.410;9.740;2023-07-13T03:59:20;9.23;;;5.03;;
4963;SDS011;2497;47.410;9.740;2023-07-13T04:01:47;7.60;;;4.33;;
4963;SDS011;2497;47.410;9.740;2023-07-13T04:04:20;13.40;;;5.13;;
4963;SDS011;2497;47.410;9.740;2023-07-13T04:07:09;7.10;;;4.07;;
4963;SDS011;2497;47.410;9.740;2023-07-13T04:09:37;7.17;;;3.90;;
4963;SDS011;2497;47.410;9.740;2023-07-13T04:15:08;7.60;;;4.33;;
4963;SDS011;2497;47.410;9.740;2023-07-13T04:17:48;7.17;;;4.60;;
4963;SDS011;2497;47.410;9.740;2023-07-13T04:20:16;6.73;;;4.37;;
4963;SDS011;2497;47.410;9.740;2023-07-13T04:22:48;8.27;;;4.33;;
4963;SDS011;2497;47.410;9.740;2023-07-13T04:25:15;8.57;;;4.37;;
4963;SDS011;2497;47.410;9.740;2023-07-13T04:27:42;7.93;;;4.00;;
4963;SDS011;2497;47.410;9.740;2023-07-13T04:30:10;11.60;;;4.93;;
4963;SDS011;2497;47.410;9.740;2023-07-13T04:32:37;13.60;;;4.50;;
4963;SDS011;2497;47.410;9.740;2023-07-13T04:35:10;9.47;;;5.00;;
4963;SDS011;2497;47.410;9.740;2023-07-13T04:37:39;9.93;;;5.10;;
4963;SDS011;2497;47.410;9.740;2023-07-13T04:40:08;13.13;;;4.30;;
4963;SDS011;2497;47.410;9.740;2023-07-13T04:42:39;8.67;;;4.33;;
4963;SDS011;2497;47.410;9.740;2023-07-13T04:45:07;8.70;;;5.10;;
4963;SDS011;2497;47.410;9.740;2023-07-13T04:47:34;9.47;;;5.00;;
4963;SDS011;2497;47.410;9.740;2023-07-13T04:50:02;8.90;;;4.37;;
4963;SDS011;2497;47.410;9.740;2023-07-13T04:52:29;16.23;;;4.67;;
4963;SDS011;2497;47.410;9.740;2023-07-13T04:54:58;10.37;;;4.73;;
4963;SDS011;2497;47.410;9.740;2023-07-13T04:57:27;8.47;;;4.70;;
4963;SDS011;2497;47.410;9.740;2023-07-13T04:59:54;6.53;;;3.80;;
4963;SDS011;2497;47.410;9.740;2023-07-13T05:02:26;13.87;;;5.93;;
4963;SDS011;2497;47.410;9.740;2023-07-13T05:04:56;11.73;;;4.47;;
4963;SDS011;2497;47.410;9.740;2023-07-13T05:07:24;8.13;;;4.50;;
4963;SDS011;2497;47.410;9.740;2023-07-13T05:09:52;9.40;;;4.60;;
4963;SDS011;2497;47.410;9.740;2023-07-13T05:12:19;8.70;;;4.70;;
4963;SDS011;2497;47.410;9.740;2023-07-13T05:14:48;14.50;;;5.07;;
4963;SDS011;2497;47.410;9.740;2023-07-13T05:17:15;11.50;;;5.20;;
4963;SDS011;2497;47.410;9.740;2023-07-13T05:19:42;14.13;;;5.50;;
4963;SDS011;2497;47.410;9.740;2023-07-13T05:22:11;11.57;;;5.03;;
4963;SDS011;2497;47.410;9.740;2023-07-13T05:24:38;11.13;;;4.93;;
4963;SDS011;2497;47.410;9.740;2023-07-13T05:27:05;16.40;;;4.60;;
4963;SDS011;2497;47.410;9.740;2023-07-13T05:29:34;12.67;;;6.13;;
4963;SDS011;2497;47.410;9.740;2023-07-13T05:32:06;10.20;;;4.30;;
4963;SDS011;2497;47.410;9.740;2023-07-13T05:34:33;9.67;;;5.20;;
4963;SDS011;2497;47.410;9.740;2023-07-13T05:37:10;8.90;;;4.90;;
4963;SDS011;2497;47.410;9.740;2023-07-13T05:39:38;10.00;;;4.43;;
4963;SDS011;2497;47.410;9.740;2023-07-13T05:42:11;13.13;;;5.70;;
4963;SDS011;2497;47.410;9.740;2023-07-13T05:44:42;9.30;;;4.50;;
4963;SDS011;2497;47.410;9.740;2023-07-13T05:47:11;8.70;;;4.37;;
4963;SDS011;2497;47.410;9.740;2023-07-13T05:49:40;8.80;;;4.37;;
4963;SDS011;2497;47.410;9.740;2023-07-13T05:52:07;9.13;;;5.00;;
4963;SDS011;2497;47.410;9.740;2023-07-13T05:54:34;6.63;;;4.20;;
4963;SDS011;2497;47.410;9.740;2023-07-13T05:57:02;8.50;;;4.57;;
4963;SDS011;2497;47.410;9.740;2023-07-13T05:59:32;7.10;;;4.10;;
4963;SDS011;2497;47.410;9.740;2023-07-13T06:02:00;8.27;;;4.23;;
4963;SDS011;2497;47.410;9.740;2023-07-13T06:04:28;7.37;;;3.87;;
4963;SDS011;2497;47.410;9.740;2023-07-13T06:06:56;15.57;;;4.77;;
4963;SDS011;2497;47.410;9.740;2023-07-13T06:09:23;11.87;;;4.50;;
4963;SDS011;2497;47.410;9.740;2023-07-13T06:11:50;7.13;;;4.40;;
4963;SDS011;2497;47.410;9.740;2023-07-13T06:14:19;8.17;;;5.10;;
4963;SDS011;2497;47.410;9.740;2023-07-13T06:16:47;12.47;;;7.27;;
4963;SDS011;2497;47.410;9.740;2023-07-13T06:19:16;11.50;;;7.70;;
4963;SDS011;2497;47.410;9.740;2023-07-13T06:21:44;13.03;;;7.67;;
4963;SDS011;2497;47.410;9.740;2023-07-13T06:24:13;13.63;;;7.43;;
4963;SDS011;2497;47.410;9.740;2023-07-13T06:26:40;12.63;;;7.43;;
4963;SDS011;2497;47.410;9.740;2023-07-13T06:29:09;18.30;;;8.20;;
4963;SDS011;2497;47.410;9.740;2023-07-13T06:31:36;16.37;;;7.57;;
4963;SDS011;2497;47.410;9.740;2023-07-13T06:34:06;15.97;;;8.20;;
4963;SDS011;2497;47.410;9.740;2023-07-13T06:36:33;9.67;;;6.47;;
4963;SDS011;2497;47.410;9.740;2023-07-13T06:39:02;13.40;;;6.80;;
4963;SDS011;2497;47.410;9.740;2023-07-13T06:41:30;12.53;;;6.97;;
4963;SDS011;2497;47.410;9.740;2023-07-13T06:43:58;11.53;;;8.00;;
4963;SDS011;2497;47.410;9.740;2023-07-13T06:46:25;11.17;;;7.60;;
4963;SDS011;2497;47.410;9.740;2023-07-13T06:48:55;11.23;;;6.50;;
4963;SDS011;2497;47.410;9.740;2023-07-13T06:51:24;11.20;;;6.13;;
4963;SDS011;2497;47.410;9.740;2023-07-13T06:53:51;15.57;;;6.83;;
4963;SDS011;2497;47.410;9.740;2023-07-13T06:56:21;13.83;;;6.70;;
4963;SDS011;2497;47.410;9.740;2023-07-13T06:58:48;11.00;;;7.03;;
4963;SDS011;2497;47.410;9.740;2023-07-13T07:01:15;9.77;;;6.77;;
4963;SDS011;2497;47.410;9.740;2023-07-13T07:03:43;9.97;;;7.00;;
4963;SDS011;2497;47.410;9.740;2023-07-13T07:06:12;10.27;;;7.00;;
4963;SDS011;2497;47.410;9.740;2023-07-13T07:08:41;10.60;;;6.27;;
4963;SDS011;2497;47.410;9.740;2023-07-13T07:11:08;8.80;;;5.97;;
4963;SDS011;2497;47.410;9.740;2023-07-13T07:13:39;13.70;;;6.30;;
4963;SDS011;2497;47.410;9.740;2023-07-13T07:16:06;13.60;;;6.93;;
4963;SDS011;2497;47.410;9.740;2023-07-13T07:18:35;9.10;;;6.30;;
4963;SDS011;2497;47.410;9.740;2023-07-13T07:21:03;13.73;;;6.97;;
4963;SDS011;2497;47.410;9.740;2023-07-13T07:23:33;11.43;;;7.30;;
4963;SDS011;2497;47.410;9.740;2023-07-13T07:26:01;13.20;;;7.17;;
4963;SDS011;2497;47.410;9.740;2023-07-13T07:28:34;13.40;;;6.40;;
4963;SDS011;2497;47.410;9.740;2023-07-13T07:31:08;13.13;;;5.63;;
4963;SDS011;2497;47.410;9.740;2023-07-13T07:33:35;12.33;;;5.20;;
4963;SDS011;2497;47.410;9.740;2023-07-13T07:36:03;12.53;;;4.80;;
4963;SDS011;2497;47.410;9.740;2023-07-13T07:38:30;8.00;;;4.27;;
4963;SDS011;2497;47.410;9.740;2023-07-13T07:40:57;9.53;;;5.27;;
4963;SDS011;2497;47.410;9.740;2023-07-13T07:43:25;10.27;;;5.30;;
4963;SDS011;2497;47.410;9.740;2023-07-13T07:45:56;8.63;;;4.47;;
4963;SDS011;2497;47.410;9.740;2023-07-13T07:48:25;7.63;;;4.20;;
4963;SDS011;2497;47.410;9.740;2023-07-13T07:51:01;6.93;;;4.10;;
4963;SDS011;2497;47.410;9.740;2023-07-13T07:53:28;14.53;;;4.57;;
4963;SDS011;2497;47.410;9.740;2023-07-13T07:55:57;7.30;;;4.30;;
4963;SDS011;2497;47.410;9.740;2023-07-13T07:58:28;8.73;;;5.00;;
4963;SDS011;2497;47.410;9.740;2023-07-13T08:01:05;7.60;;;4.53;;
4963;SDS011;2497;47.410;9.740;2023-07-13T08:03:37;8.57;;;4.70;;
4963;SDS011;2497;47.410;9.740;2023-07-13T08:06:05;9.97;;;5.10;;
4963;SDS011;2497;47.410;9.740;2023-07-13T08:08:38;11.10;;;5.00;;
4963;SDS011;2497;47.410;9.740;2023-07-13T08:11:06;10.07;;;5.70;;
4963;SDS011;2497;47.410;9.740;2023-07-13T08:13:40;10.93;;;5.30;;
4963;SDS011;2497;47.410;9.740;2023-07-13T08:16:07;13.60;;;5.70;;
4963;SDS011;2497;47.410;9.740;2023-07-13T08:18:40;6.83;;;5.00;;
4963;SDS011;2497;47.410;9.740;2023-07-13T08:21:10;9.00;;;4.93;;
4963;SDS011;2497;47.410;9.740;2023-07-13T08:23:38;7.63;;;4.77;;
4963;SDS011;2497;47.410;9.740;2023-07-13T08:26:07;10.60;;;4.80;;
4963;SDS011;2497;47.410;9.740;2023-07-13T08:28:35;10.10;;;5.03;;
4963;SDS011;2497;47.410;9.740;2023-07-13T08:31:06;7.37;;;5.00;;
4963;SDS011;2497;47.410;9.740;2023-07-13T08:33:34;7.40;;;4.33;;
4963;SDS011;2497;47.410;9.740;2023-07-13T08:36:05;7.93;;;4.87;;
4963;SDS011;2497;47.410;9.740;2023-07-13T08:38:34;11.13;;;5.13;;
4963;SDS011;2497;47.410;9.740;2023-07-13T08:41:09;8.93;;;4.80;;
4963;SDS011;2497;47.410;9.740;2023-07-13T08:43:47;9.90;;;5.20;;
4963;SDS011;2497;47.410;9.740;2023-07-13T08:46:20;10.80;;;5.63;;
4963;SDS011;2497;47.410;9.740;2023-07-13T08:49:01;6.50;;;4.20;;
4963;SDS011;2497;47.410;9.740;2023-07-13T08:51:38;12.27;;;5.07;;
4963;SDS011;2497;47.410;9.740;2023-07-13T08:54:11;7.37;;;4.40;;
4963;SDS011;2497;47.410;9.740;2023-07-13T08:56:48;7.30;;;4.20;;
4963;SDS011;2497;47.410;9.740;2023-07-13T08:59:20;9.60;;;4.50;;
4963;SDS011;2497;47.410;9.740;2023-07-13T09:01:53;9.47;;;4.73;;
4963;SDS011;2497;47.410;9.740;2023-07-13T09:04:42;13.53;;;4.20;;
4963;SDS011;2497;47.410;9.740;2023-07-13T09:07:21;10.00;;;4.83;;
4963;SDS011;2497;47.410;9.740;2023-07-13T09:10:01;8.00;;;4.03;;
4963;SDS011;2497;47.410;9.740;2023-07-13T09:12:43;8.40;;;4.23;;
4963;SDS011;2497;47.410;9.740;2023-07-13T09:15:21;7.90;;;4.50;;
4963;SDS011;2497;47.410;9.740;2023-07-13T09:18:08;7.03;;;4.10;;
4963;SDS011;2497;47.410;9.740;2023-07-13T09:20:39;8.03;;;4.27;;
4963;SDS011;2497;47.410;9.740;2023-07-13T09:23:20;7.20;;;4.30;;
4963;SDS011;2497;47.410;9.740;2023-07-13T09:25:55;6.73;;;4.10;;
4963;SDS011;2497;47.410;9.740;2023-07-13T09:28:29;5.27;;;4.27;;
4963;SDS011;2497;47.410;9.740;2023-07-13T09:31:01;9.30;;;5.20;;
4963;SDS011;2497;47.410;9.740;2023-07-13T09:33:39;10.07;;;4.53;;
4963;SDS011;2497;47.410;9.740;2023-07-13T09:36:23;8.13;;;4.67;;
4963;SDS011;2497;47.410;9.740;2023-07-13T09:39:01;6.70;;;4.50;;
4963;SDS011;2497;47.410;9.740;2023-07-13T09:41:36;7.67;;;4.13;;
4963;SDS011;2497;47.410;9.740;2023-07-13T09:44:12;8.80;;;4.50;;
4963;SDS011;2497;47.410;9.740;2023-07-13T09:46:51;8.50;;;4.53;;
4963;SDS011;2497;47.410;9.740;2023-07-13T09:49:24;9.53;;;4.90;;
4963;SDS011;2497;47.410;9.740;2023-07-13T09:52:01;9.63;;;4.20;;
4963;SDS011;2497;47.410;9.740;2023-07-13T09:54:43;8.17;;;4.73;;
4963;SDS011;2497;47.410;9.740;2023-07-13T09:57:39;9.20;;;4.87;;
4963;SDS011;2497;47.410;9.740;2023-07-13T10:00:20;5.10;;;3.73;;
4963;SDS011;2497;47.410;9.740;2023-07-13T10:03:15;10.30;;;4.90;;
4963;SDS011;2497;47.410;9.740;2023-07-13T10:05:47;11.13;;;4.60;;
4963;SDS011;2497;47.410;9.740;2023-07-13T10:08:20;7.90;;;4.20;;
4963;SDS011;2497;47.410;9.740;2023-07-13T10:10:57;7.07;;;4.37;;
4963;SDS011;2497;47.410;9.740;2023-07-13T10:13:29;6.17;;;3.70;;
4963;SDS011;2497;47.410;9.740;2023-07-13T10:16:02;7.07;;;3.90;;
4963;SDS011;2497;47.410;9.740;2023-07-13T10:18:35;6.17;;;3.57;;
4963;SDS011;2497;47.410;9.740;2023-07-13T10:21:11;6.80;;;3.70;;
4963;SDS011;2497;47.410;9.740;2023-07-13T10:23:40;5.67;;;3.53;;
4963;SDS011;2497;47.410;9.740;2023-07-13T10:26:12;6.87;;;3.60;;
4963;SDS011;2497;47.410;9.740;2023-07-13T10:28:45;7.60;;;3.60;;
4963;SDS011;2497;47.410;9.740;2023-07-13T10:31:18;7.03;;;3.43;;
4963;SDS011;2497;47.410;9.740;2023-07-13T10:33:46;9.73;;;4.17;;
4963;SDS011;2497;47.410;9.740;2023-07-13T10:36:17;5.40;;;3.00;;
4963;SDS011;2497;47.410;9.740;2023-07-13T10:38:51;6.37;;;3.80;;
4963;SDS011;2497;47.410;9.740;2023-07-13T10:41:22;4.60;;;3.13;;
4963;SDS011;2497;47.410;9.740;2023-07-13T10:43:55;6.33;;;3.30;;
4963;SDS011;2497;47.410;9.740;2023-07-13T10:46:25;6.47;;;3.50;;
4963;SDS011;2497;47.410;9.740;2023-07-13T10:48:56;10.53;;;3.87;;
4963;SDS011;2497;47.410;9.740;2023-07-13T10:51:25;5.97;;;3.20;;
4963;SDS011;2497;47.410;9.740;2023-07-13T10:56:48;5.90;;;3.60;;
4963;SDS011;2497;47.410;9.740;2023-07-13T10:59:18;7.13;;;3.80;;
4963;SDS011;2497;47.410;9.740;2023-07-13T11:01:53;5.80;;;3.27;;
4963;SDS011;2497;47.410;9.740;2023-07-13T11:04:25;7.97;;;4.23;;
4963;SDS011;2497;47.410;9.740;2023-07-13T11:06:56;5.17;;;4.10;;
4963;SDS011;2497;47.410;9.740;2023-07-13T11:09:37;7.40;;;4.30;;
4963;SDS011;2497;47.410;9.740;2023-07-13T11:12:25;9.33;;;3.70;;
4963;SDS011;2497;47.410;9.740;2023-07-13T11:15:11;5.50;;;3.60;;
4963;SDS011;2497;47.410;9.740;2023-07-13T11:17:49;5.50;;;3.70;;
4963;SDS011;2497;47.410;9.740;2023-07-13T11:20:30;5.57;;;3.50;;
4963;SDS011;2497;47.410;9.740;2023-07-13T11:23:15;5.27;;;3.43;;
4963;SDS011;2497;47.410;9.740;2023-07-13T11:25:56;7.20;;;3.23;;
4963;SDS011;2497;47.410;9.740;2023-07-13T11:28:29;7.40;;;3.50;;
4963;SDS011;2497;47.410;9.740;2023-07-13T11:31:14;4.90;;;3.20;;
4963;SDS011;2497;47.410;9.740;2023-07-13T11:36:30;4.90;;;3.00;;
4963;SDS011;2497;47.410;9.740;2023-07-13T11:39:03;6.00;;;3.20;;
4963;SDS011;2497;47.410;9.740;2023-07-13T11:41:43;5.90;;;3.73;;
4963;SDS011;2497;47.410;9.740;2023-07-13T11:44:20;5.60;;;3.30;;
4963;SDS011;2497;47.410;9.740;2023-07-13T11:46:49;6.17;;;3.87;;
4963;SDS011;2497;47.410;9.740;2023-07-13T11:49:19;9.23;;;3.63;;
4963;SDS011;2497;47.410;9.740;2023-07-13T11:51:48;6.27;;;3.93;;
4963;SDS011;2497;47.410;9.740;2023-07-13T11:54:22;5.57;;;3.87;;
4963;SDS011;2497;47.410;9.740;2023-07-13T11:56:52;5.70;;;3.53;;
4963;SDS011;2497;47.410;9.740;2023-07-13T11:59:23;6.50;;;3.40;;
4963;SDS011;2497;47.410;9.740;2023-07-13T12:01:51;7.40;;;3.50;;
4963;SDS011;2497;47.410;9.740;2023-07-13T12:04:21;9.17;;;3.30;;
4963;SDS011;2497;47.410;9.740;2023-07-13T12:06:55;8.30;;;3.07;;
4963;SDS011;2497;47.410;9.740;2023-07-13T12:09:25;4.77;;;3.30;;
4963;SDS011;2497;47.410;9.740;2023-07-13T12:11:56;5.93;;;3.30;;
4963;SDS011;2497;47.410;9.740;2023-07-13T12:14:28;5.63;;;3.07;;
4963;SDS011;2497;47.410;9.740;2023-07-13T12:16:55;5.07;;;3.20;;
4963;SDS011;2497;47.410;9.740;2023-07-13T12:19:23;5.20;;;3.57;;
4963;SDS011;2497;47.410;9.740;2023-07-13T12:21:52;5.03;;;3.30;;
4963;SDS011;2497;47.410;9.740;2023-07-13T12:24:22;6.80;;;4.07;;
4963;SDS011;2497;47.410;9.740;2023-07-13T12:26:52;5.40;;;3.40;;
4963;SDS011;2497;47.410;9.740;2023-07-13T12:29:24;5.90;;;3.70;;
4963;SDS011;2497;47.410;9.740;2023-07-13T12:31:57;5.43;;;3.10;;
4963;SDS011;2497;47.410;9.740;2023-07-13T12:34:25;4.73;;;3.10;;
4963;SDS011;2497;47.410;9.740;2023-07-13T12:36:55;5.97;;;3.27;;
4963;SDS011;2497;47.410;9.740;2023-07-13T12:42:19;5.67;;;3.43;;
4963;SDS011;2497;47.410;9.740;2023-07-13T12:44:49;5.90;;;3.30;;
4963;SDS011;2497;47.410;9.740;2023-07-13T12:47:20;4.43;;;2.50;;
4963;SDS011;2497;47.410;9.740;2023-07-13T12:49:49;4.73;;;2.97;;
4963;SDS011;2497;47.410;9.740;2023-07-13T12:52:21;4.43;;;3.20;;
4963;SDS011;2497;47.410;9.740;2023-07-13T12:54:53;5.43;;;3.30;;
4963;SDS011;2497;47.410;9.740;2023-07-13T12:57:27;9.00;;;3.93;;
4963;SDS011;2497;47.410;9.740;2023-07-13T12:59:56;4.47;;;2.97;;
4963;SDS011;2497;47.410;9.740;2023-07-13T13:02:32;7.60;;;3.07;;
4963;SDS011;2497;47.410;9.740;2023-07-13T13:05:01;5.80;;;3.27;;
4963;SDS011;2497;47.410;9.740;2023-07-13T13:07:30;4.60;;;2.97;;
4963;SDS011;2497;47.410;9.740;2023-07-13T13:10:01;6.10;;;3.70;;
4963;SDS011;2497;47.410;9.740;2023-07-13T13:12:39;5.90;;;3.23;;
4963;SDS011;2497;47.410;9.740;2023-07-13T13:15:07;6.13;;;3.70;;
4963;SDS011;2497;47.410;9.740;2023-07-13T13:17:38;5.77;;;3.03;;
4963;SDS011;2497;47.410;9.740;2023-07-13T13:20:11;6.20;;;3.10;;
4963;SDS011;2497;47.410;9.740;2023-07-13T13:22:44;5.03;;;3.23;;
4963;SDS011;2497;47.410;9.740;2023-07-13T13:25:18;5.50;;;3.67;;
4963;SDS011;2497;47.410;9.740;2023-07-13T13:27:45;5.87;;;3.17;;
4963;SDS011;2497;47.410;9.740;2023-07-13T13:30:15;5.70;;;2.90;;
4963;SDS011;2497;47.410;9.740;2023-07-13T13:32:48;4.50;;;3.27;;
4963;SDS011;2497;47.410;9.740;2023-07-13T13:35:16;6.33;;;3.60;;
4963;SDS011;2497;47.410;9.740;2023-07-13T13:37:45;4.90;;;3.50;;
4963;SDS011;2497;47.410;9.740;2023-07-13T13:40:16;5.50;;;3.50;;
4963;SDS011;2497;47.410;9.740;2023-07-13T13:42:45;8.10;;;3.00;;
4963;SDS011;2497;47.410;9.740;2023-07-13T13:45:12;4.43;;;3.00;;
4963;SDS011;2497;47.410;9.740;2023-07-13T13:47:43;7.70;;;2.77;;
4963;SDS011;2497;47.410;9.740;2023-07-13T13:50:15;5.30;;;2.80;;
4963;SDS011;2497;47.410;9.740;2023-07-13T13:52:45;3.37;;;2.60;;
4963;SDS011;2497;47.410;9.740;2023-07-13T13:55:14;3.77;;;3.20;;
4963;SDS011;2497;47.410;9.740;2023-07-13T13:57:44;3.90;;;2.97;;
4963;SDS011;2497;47.410;9.740;2023-07-13T14:00:12;5.60;;;3.40;;
4963;SDS011;2497;47.410;9.740;2023-07-13T14:02:42;7.63;;;3.03;;
4963;SDS011;2497;47.410;9.740;2023-07-13T14:05:21;4.63;;;2.30;;
4963;SDS011;2497;47.410;9.740;2023-07-13T14:07:51;4.40;;;2.73;;
4963;SDS011;2497;47.410;9.740;2023-07-13T14:10:19;3.90;;;2.53;;
4963;SDS011;2497;47.410;9.740;2023-07-13T14:12:47;4.20;;;2.60;;
4963;SDS011;2497;47.410;9.740;2023-07-13T14:15:17;6.57;;;3.00;;
4963;SDS011;2497;47.410;9.740;2023-07-13T14:17:48;7.33;;;3.30;;
4963;SDS011;2497;47.410;9.740;2023-07-13T14:20:16;6.70;;;3.13;;
4963;SDS011;2497;47.410;9.740;2023-07-13T14:22:45;4.50;;;2.60;;
4963;SDS011;2497;47.410;9.740;2023-07-13T14:25:14;8.23;;;3.33;;
4963;SDS011;2497;47.410;9.740;2023-07-13T14:27:45;5.60;;;3.00;;
4963;SDS011;2497;47.410;9.740;2023-07-13T14:30:16;3.17;;;2.30;;
4963;SDS011;2497;47.410;9.740;2023-07-13T14:32:45;5.50;;;2.90;;
4963;SDS011;2497;47.410;9.740;2023-07-13T14:35:14;2.37;;;2.10;;
4963;SDS011;2497;47.410;9.740;2023-07-13T14:37:44;6.30;;;2.73;;
4963;SDS011;2497;47.410;9.740;2023-07-13T14:40:14;4.87;;;2.60;;
4963;SDS011;2497;47.410;9.740;2023-07-13T14:42:45;3.80;;;2.57;;
4963;SDS011;2497;47.410;9.740;2023-07-13T14:45:14;4.20;;;2.83;;
4963;SDS011;2497;47.410;9.740;2023-07-13T14:47:45;6.33;;;3.40;;
4963;SDS011;2497;47.410;9.740;2023-07-13T14:50:14;4.93;;;3.23;;
4963;SDS011;2497;47.410;9.740;2023-07-13T14:52:43;5.30;;;2.80;;
4963;SDS011;2497;47.410;9.740;2023-07-13T14:55:13;7.83;;;2.87;;
4963;SDS011;2497;47.410;9.740;2023-07-13T14:57:42;4.30;;;2.27;;
4963;SDS011;2497;47.410;9.740;2023-07-13T15:00:15;3.47;;;2.27;;
4963;SDS011;2497;47.410;9.740;2023-07-13T15:02:47;2.27;;;1.87;;
4963;SDS011;2497;47.410;9.740;2023-07-13T15:05:17;7.50;;;2.90;;
4963;SDS011;2497;47.410;9.740;2023-07-13T15:07:48;3.13;;;2.23;;
4963;SDS011;2497;47.410;9.740;2023-07-13T15:10:16;8.47;;;2.10;;
4963;SDS011;2497;47.410;9.740;2023-07-13T15:12:46;4.40;;;2.50;;
4963;SDS011;2497;47.410;9.740;2023-07-13T15:15:14;3.70;;;2.40;;
4963;SDS011;2497;47.410;9.740;2023-07-13T15:17:43;6.17;;;2.90;;
4963;SDS011;2497;47.410;9.740;2023-07-13T15:20:19;3.70;;;2.83;;
4963;SDS011;2497;47.410;9.740;2023-07-13T15:22:50;4.93;;;3.00;;
4963;SDS011;2497;47.410;9.740;2023-07-13T15:25:21;2.97;;;2.13;;
4963;SDS011;2497;47.410;9.740;2023-07-13T15:27:50;3.87;;;2.23;;
4963;SDS011;2497;47.410;9.740;2023-07-13T15:30:18;2.67;;;2.47;;
4963;SDS011;2497;47.410;9.740;2023-07-13T15:32:45;2.60;;;2.30;;
4963;SDS011;2497;47.410;9.740;2023-07-13T15:35:14;6.50;;;2.37;;
4963;SDS011;2497;47.410;9.740;2023-07-13T15:37:42;2.20;;;1.93;;
4963;SDS011;2497;47.410;9.740;2023-07-13T15:40:11;4.93;;;2.20;;
4963;SDS011;2497;47.410;9.740;2023-07-13T15:42:41;2.27;;;1.93;;
4963;SDS011;2497;47.410;9.740;2023-07-13T15:45:17;3.23;;;2.23;;
4963;SDS011;2497;47.410;9.740;2023-07-13T15:47:46;2.77;;;2.20;;